Time;durP1;ratioP1;P1;durP2;ratioP2;P2;SDS_P1;SDS_P2;PMS_P1;PMS_P2;Temp;Humidity;BMP_temperature;BMP_pressure;BME280_temperature;BME280_humidity;BME280_pressure;Samples;Min_cycle;Max_cycle;Signal;HPM_P1;HPM_P2
2022/05/29 00:01:20;;;;;;;11.65;2.92;;;10.30;99.90;;;;;;5060356;28;20059;-70
2022/05/29 00:03:46;;;;;;;10.55;2.70;;;10.30;99.90;;;;;;5077176;28;20040;-70
2022/05/29 00:06:13;;;;;;;10.48;2.30;;;10.30;99.90;;;;;;5071803;28;20056;-70
2022/05/29 00:08:41;;;;;;;10.52;3.03;;;10.30;99.90;;;;;;5092968;28;20031;-70
2022/05/29 00:11:10;;;;;;;11.07;2.65;;;10.30;99.90;;;;;;5075060;28;20543;-70
2022/05/29 00:13:36;;;;;;;9.30;2.25;;;10.30;99.90;;;;;;5092346;28;20043;-70
2022/05/29 00:16:02;;;;;;;7.28;2.50;;;10.30;99.90;;;;;;5086116;28;20402;-70
2022/05/29 00:18:28;;;;;;;11.75;3.00;;;10.40;99.90;;;;;;5089426;28;20039;-70
2022/05/29 00:20:56;;;;;;;15.32;3.88;;;10.30;99.90;;;;;;5072486;28;20089;-70
2022/05/29 00:23:22;;;;;;;14.52;2.95;;;10.40;99.90;;;;;;5107644;27;20052;-70
2022/05/29 00:25:51;;;;;;;10.32;2.92;;;10.40;99.90;;;;;;5094369;28;20036;-70
2022/05/29 00:28:16;;;;;;;15.55;3.33;;;10.40;99.90;;;;;;5091234;28;20028;-70
2022/05/29 00:30:42;;;;;;;12.30;2.70;;;10.40;99.90;;;;;;5078692;28;20036;-70
2022/05/29 00:33:08;;;;;;;7.63;2.85;;;10.40;99.90;;;;;;5106527;28;20048;-70
2022/05/29 00:35:37;;;;;;;12.55;3.15;;;10.40;99.90;;;;;;5074159;28;20044;-69
2022/05/29 00:38:03;;;;;;;10.95;3.22;;;10.40;99.90;;;;;;5092901;28;20428;-70
2022/05/29 00:40:37;;;;;;;10.05;2.92;;;10.30;99.90;;;;;;5107699;28;20052;-70
2022/05/29 00:43:03;;;;;;;9.00;2.50;;;10.40;99.90;;;;;;5105592;28;20717;-70
2022/05/29 00:45:36;;;;;;;12.18;2.85;;;10.40;99.90;;;;;;5074017;28;20130;-70
2022/05/29 00:48:04;;;;;;;10.82;3.08;;;10.40;99.90;;;;;;5094456;28;20565;-69
2022/05/29 00:50:30;;;;;;;14.15;3.05;;;10.40;99.90;;;;;;5092867;28;20050;-70
2022/05/29 00:52:56;;;;;;;14.68;3.03;;;10.40;99.90;;;;;;5080560;28;20048;-70
2022/05/29 00:55:26;;;;;;;17.67;3.30;;;10.40;99.90;;;;;;5114611;27;20047;-70
2022/05/29 00:57:59;;;;;;;14.43;3.80;;;10.40;99.90;;;;;;5078137;28;20105;-70
2022/05/29 01:00:27;;;;;;;13.25;2.33;;;10.30;99.90;;;;;;5093257;28;20078;-70
2022/05/29 01:02:54;;;;;;;24.20;5.05;;;10.20;99.90;;;;;;5079103;28;20035;-70
2022/05/29 01:05:22;;;;;;;14.30;3.33;;;10.20;99.90;;;;;;5097575;28;20047;-70
2022/05/29 01:07:53;;;;;;;12.02;2.95;;;10.20;99.90;;;;;;5067488;28;20028;-70
2022/05/29 01:10:21;;;;;;;16.23;3.38;;;10.10;99.90;;;;;;5097616;28;20039;-70
2022/05/29 01:12:59;;;;;;;15.77;3.28;;;10.10;99.90;;;;;;5080577;28;20048;-70
2022/05/29 01:15:54;;;;;;;17.38;3.50;;;10.20;99.90;;;;;;5113401;27;20075;-70
2022/05/29 01:18:41;;;;;;;12.55;2.85;;;10.10;99.90;;;;;;5083967;28;20440;-70
2022/05/29 01:21:39;;;;;;;11.63;3.92;;;10.10;99.90;;;;;;5073173;28;20066;-70
2022/05/29 01:24:37;;;;;;;12.57;2.78;;;10.20;99.90;;;;;;5080152;28;20051;-70
2022/05/29 01:27:38;;;;;;;14.30;3.10;;;10.20;99.90;;;;;;5095743;28;20051;-70
2022/05/29 01:30:17;;;;;;;20.92;3.33;;;10.10;99.90;;;;;;5043352;28;20053;-70
2022/05/29 01:33:04;;;;;;;11.77;2.55;;;10.10;99.90;;;;;;5079360;28;20584;-69
2022/05/29 01:35:35;;;;;;;12.02;2.55;;;10.10;99.90;;;;;;5079137;28;20047;-70
2022/05/29 01:38:08;;;;;;;13.82;3.88;;;10.10;99.90;;;;;;5078116;28;20119;-70
2022/05/29 01:40:47;;;;;;;11.77;2.22;;;10.10;99.90;;;;;;5076572;28;20059;-70
2022/05/29 01:43:21;;;;;;;12.05;3.38;;;10.10;99.90;;;;;;5097237;28;20036;-70
2022/05/29 01:46:01;;;;;;;14.65;3.45;;;10.10;99.90;;;;;;5064270;28;20119;-70
2022/05/29 01:48:45;;;;;;;13.52;3.30;;;10.10;99.90;;;;;;5092386;28;20036;-70
2022/05/29 01:51:21;;;;;;;13.32;2.50;;;10.10;99.90;;;;;;5088915;28;20054;-70
2022/05/29 01:53:53;;;;;;;;;;;10.00;99.90;;;;;;5076723;28;20571;-70
2022/05/29 01:56:27;;;;;;;13.70;3.35;;;10.10;99.90;;;;;;5115906;27;20434;-69
2022/05/29 01:59:00;;;;;;;13.82;3.22;;;10.00;99.90;;;;;;5090601;28;20036;-70
2022/05/29 02:01:32;;;;;;;13.90;3.15;;;10.00;99.90;;;;;;5091470;28;20164;-70
2022/05/29 02:04:03;;;;;;;10.82;2.15;;;10.10;99.90;;;;;;5095370;28;20382;-69
2022/05/29 02:09:35;;;;;;;9.82;2.53;;;10.10;99.90;;;;;;5087645;28;20064;-70
2022/05/29 02:12:02;;;;;;;9.43;2.70;;;10.00;99.90;;;;;;5098679;28;20047;-70
2022/05/29 02:14:34;;;;;;;16.08;3.47;;;9.90;99.90;;;;;;5059031;28;20409;-70
2022/05/29 02:17:10;;;;;;;14.63;2.97;;;10.00;99.90;;;;;;5091956;28;20041;-70
2022/05/29 02:19:47;;;;;;;8.10;2.10;;;10.00;99.90;;;;;;5095675;28;20085;-70
2022/05/29 02:22:35;;;;;;;13.02;2.35;;;10.00;99.90;;;;;;5066165;28;20100;-70
2022/05/29 02:25:07;;;;;;;9.77;2.53;;;10.00;99.90;;;;;;5085124;28;20047;-70
2022/05/29 02:27:38;;;;;;;14.02;3.55;;;10.00;99.90;;;;;;5075774;28;20036;-70
2022/05/29 02:30:05;;;;;;;11.30;2.92;;;10.00;99.90;;;;;;5098889;28;20047;-70
2022/05/29 02:32:37;;;;;;;11.20;2.83;;;10.00;99.90;;;;;;5092143;28;20097;-70
2022/05/29 02:35:21;;;;;;;12.77;3.50;;;9.90;99.90;;;;;;5096571;28;20043;-70
2022/05/29 02:38:06;;;;;;;10.90;2.33;;;9.90;99.90;;;;;;5058233;28;20049;-70
2022/05/29 02:40:39;;;;;;;16.33;3.35;;;10.00;99.90;;;;;;5079319;28;20171;-70
2022/05/29 02:43:17;;;;;;;14.25;3.45;;;10.00;99.90;;;;;;5060692;28;20043;-70
2022/05/29 02:46:08;;;;;;;14.90;3.53;;;10.00;99.90;;;;;;5061898;28;20525;-70
2022/05/29 02:48:48;;;;;;;11.50;2.95;;;10.00;99.90;;;;;;5097614;28;20028;-70
2022/05/29 02:51:32;;;;;;;12.68;3.13;;;10.00;99.90;;;;;;5074304;28;20508;-70
2022/05/29 02:53:57;;;;;;;13.93;2.58;;;10.00;99.90;;;;;;5096176;28;20082;-70
2022/05/29 02:56:23;;;;;;;12.90;3.10;;;10.00;99.90;;;;;;5078575;28;20075;-69
2022/05/29 02:58:52;;;;;;;13.00;3.10;;;10.00;99.90;;;;;;5094083;28;20063;-70
2022/05/29 03:01:23;;;;;;;15.80;2.75;;;10.00;99.90;;;;;;5078006;28;20036;-70
2022/05/29 03:03:51;;;;;;;10.07;2.40;;;10.00;99.90;;;;;;5098353;28;20036;-70
2022/05/29 03:06:28;;;;;;;9.35;2.60;;;10.10;99.90;;;;;;5089387;28;20032;-70
2022/05/29 03:09:09;;;;;;;16.17;2.83;;;10.00;99.90;;;;;;5078581;28;20043;-70
2022/05/29 03:11:39;;;;;;;12.82;2.60;;;10.00;99.90;;;;;;5076314;28;20120;-70
2022/05/29 03:14:23;;;;;;;10.32;2.33;;;10.00;99.90;;;;;;5112727;27;20051;-70
2022/05/29 03:17:02;;;;;;;10.95;2.80;;;10.00;99.90;;;;;;5074199;28;20043;-70
2022/05/29 03:19:48;;;;;;;12.82;2.92;;;10.00;99.90;;;;;;5051378;28;20556;-70
2022/05/29 03:22:35;;;;;;;13.32;3.05;;;10.00;99.90;;;;;;5076346;28;20067;-70
2022/05/29 03:25:25;;;;;;;20.17;3.13;;;10.00;99.90;;;;;;5105853;27;20487;-70
2022/05/29 03:27:55;;;;;;;9.98;2.45;;;10.00;99.90;;;;;;5065197;28;20028;-70
2022/05/29 03:30:29;;;;;;;14.27;3.22;;;10.00;99.90;;;;;;5095040;28;20380;-70
2022/05/29 03:32:57;;;;;;;16.13;2.58;;;10.00;99.90;;;;;;5075895;28;20724;-70
2022/05/29 03:35:30;;;;;;;13.45;1.98;;;10.10;99.90;;;;;;5070787;28;20044;-70
2022/05/29 03:37:58;;;;;;;10.40;2.15;;;10.10;99.90;;;;;;5077578;28;20095;-71
2022/05/29 03:40:27;;;;;;;10.32;2.08;;;10.10;99.90;;;;;;5075189;28;20040;-70
2022/05/29 03:42:53;;;;;;;9.70;2.22;;;10.10;99.90;;;;;;5094490;28;20389;-70
2022/05/29 03:45:34;;;;;;;7.63;2.42;;;10.10;99.90;;;;;;5073199;28;20082;-70
2022/05/29 03:48:00;;;;;;;13.10;2.22;;;10.20;99.90;;;;;;5091483;28;20562;-70
2022/05/29 03:50:26;;;;;;;12.85;2.45;;;10.20;99.90;;;;;;5075148;28;20048;-70
2022/05/29 03:52:53;;;;;;;11.43;2.17;;;10.20;99.90;;;;;;5083033;28;20498;-70
2022/05/29 03:55:24;;;;;;;12.60;2.47;;;10.30;99.90;;;;;;5075714;28;20086;-70
2022/05/29 03:57:51;;;;;;;13.73;3.17;;;10.20;99.90;;;;;;5092995;28;20065;-70
2022/05/29 04:00:17;;;;;;;13.80;2.72;;;10.20;99.90;;;;;;5062353;28;20044;-70
2022/05/29 04:02:44;;;;;;;11.13;2.38;;;10.20;99.90;;;;;;5078519;28;20040;-70
2022/05/29 04:05:13;;;;;;;9.88;2.15;;;10.30;99.90;;;;;;5090168;28;20048;-70
2022/05/29 04:13:10;;;;;;;8.73;2.15;;;10.30;99.90;;;;;;5088286;28;20067;-70
2022/05/29 04:15:37;;;;;;;9.77;1.88;;;10.30;99.90;;;;;;5093580;28;20032;-70
2022/05/29 04:18:04;;;;;;;14.48;2.88;;;10.20;99.90;;;;;;5072832;28;20058;-70
2022/05/29 04:20:30;;;;;;;10.05;2.20;;;10.30;99.90;;;;;;5058235;28;20134;-70
2022/05/29 04:22:57;;;;;;;12.70;2.08;;;10.30;99.90;;;;;;5074526;28;20376;-70
2022/05/29 04:25:22;;;;;;;11.60;2.28;;;10.40;99.90;;;;;;5090982;28;20610;-70
2022/05/29 04:27:48;;;;;;;13.18;3.70;;;10.30;99.90;;;;;;5077084;28;20052;-70
2022/05/29 04:30:13;;;;;;;12.15;2.72;;;10.40;99.90;;;;;;5092038;28;20097;-70
2022/05/29 04:35:23;;;;;;;12.30;2.05;;;10.30;99.90;;;;;;5069530;28;20044;-70
2022/05/29 04:37:49;;;;;;;13.07;1.80;;;10.30;99.90;;;;;;5112524;28;20032;-70
2022/05/29 04:40:14;;;;;;;10.15;2.20;;;10.30;99.90;;;;;;5070690;28;20115;-70
2022/05/29 04:42:40;;;;;;;6.88;2.20;;;10.40;99.90;;;;;;5097309;28;20047;-70
2022/05/29 04:45:06;;;;;;;8.77;1.70;;;10.40;99.90;;;;;;5109705;28;20416;-70
2022/05/29 04:47:32;;;;;;;13.93;2.65;;;10.40;99.90;;;;;;5087161;28;20138;-70
2022/05/29 04:49:57;;;;;;;9.27;2.00;;;10.40;99.90;;;;;;5095003;28;20113;-70
2022/05/29 04:52:23;;;;;;;10.52;1.80;;;10.40;99.90;;;;;;5093976;28;20041;-71
2022/05/29 04:54:49;;;;;;;11.52;1.98;;;10.40;99.90;;;;;;5073933;28;20093;-70
2022/05/29 04:57:17;;;;;;;9.20;1.77;;;10.40;99.90;;;;;;5074389;28;20123;-70
2022/05/29 04:59:43;;;;;;;7.72;1.80;;;10.50;99.90;;;;;;5079652;28;20044;-70
2022/05/29 05:02:08;;;;;;;9.23;2.00;;;10.50;99.90;;;;;;5071024;28;20093;-70
2022/05/29 05:04:34;;;;;;;10.23;1.80;;;10.60;99.90;;;;;;5061311;28;20040;-70
2022/05/29 05:07:00;;;;;;;13.30;2.38;;;10.60;99.90;;;;;;5092792;28;20050;-70
2022/05/29 05:09:27;;;;;;;15.13;2.13;;;10.60;99.90;;;;;;5072191;28;20111;-70
2022/05/29 05:11:54;;;;;;;13.60;1.85;;;10.50;99.90;;;;;;5067345;28;20064;-70
2022/05/29 05:14:20;;;;;;;13.35;2.40;;;10.60;99.90;;;;;;5091418;28;20032;-70
2022/05/29 05:16:47;;;;;;;11.68;2.03;;;10.60;99.90;;;;;;5086087;28;20031;-70
2022/05/29 05:19:13;;;;;;;10.85;2.20;;;10.60;99.90;;;;;;5073564;28;21167;-70
2022/05/29 05:21:39;;;;;;;10.75;2.40;;;10.60;99.90;;;;;;5091251;28;20111;-70
2022/05/29 05:24:05;;;;;;;9.57;1.90;;;10.60;99.90;;;;;;5086395;28;20040;-70
2022/05/29 05:26:31;;;;;;;10.10;1.83;;;10.60;99.90;;;;;;5104540;28;20701;-71
2022/05/29 05:28:57;;;;;;;13.35;2.88;;;10.70;99.90;;;;;;5072957;28;20046;-71
2022/05/29 05:31:23;;;;;;;16.70;2.20;;;10.60;99.90;;;;;;5091653;28;20028;-70
2022/05/29 05:33:48;;;;;;;12.20;2.13;;;10.70;99.90;;;;;;5112534;28;20035;-70
2022/05/29 05:36:15;;;;;;;14.45;2.17;;;10.70;99.90;;;;;;5073108;28;20044;-70
2022/05/29 05:38:40;;;;;;;14.38;2.40;;;10.70;99.90;;;;;;5092166;28;20059;-70
2022/05/29 05:41:10;;;;;;;13.45;1.80;;;10.70;99.90;;;;;;5095036;28;20031;-70
2022/05/29 05:43:35;;;;;;;8.13;1.92;;;10.80;99.90;;;;;;5073991;28;20040;-70
2022/05/29 05:46:01;;;;;;;12.13;2.15;;;10.80;99.90;;;;;;5091621;28;20035;-70
2022/05/29 05:48:30;;;;;;;14.32;2.65;;;10.80;99.90;;;;;;5095454;28;20035;-70
2022/05/29 05:50:57;;;;;;;10.73;2.05;;;10.80;99.90;;;;;;5076196;28;20478;-70
2022/05/29 05:53:23;;;;;;;17.13;2.28;;;10.90;99.90;;;;;;5073883;28;20537;-70
2022/05/29 05:55:49;;;;;;;12.02;2.47;;;11.00;99.90;;;;;;5093268;28;20035;-70
2022/05/29 05:58:14;;;;;;;10.18;2.03;;;11.00;99.90;;;;;;5061302;28;20550;-70
2022/05/29 06:00:42;;;;;;;7.57;1.35;;;11.20;99.90;;;;;;5073556;28;20134;-70
2022/05/29 06:03:08;;;;;;;9.63;2.28;;;11.30;99.90;;;;;;5092263;28;20082;-70
2022/05/29 06:05:33;;;;;;;13.60;1.98;;;11.30;99.90;;;;;;5068515;28;20094;-70
2022/05/29 06:07:59;;;;;;;9.90;2.72;;;11.40;99.90;;;;;;5080280;28;20048;-70
2022/05/29 06:10:25;;;;;;;14.73;2.50;;;11.40;99.90;;;;;;5097794;28;20040;-70
2022/05/29 06:12:51;;;;;;;11.55;2.25;;;11.40;99.90;;;;;;5079329;28;20123;-70
2022/05/29 06:15:17;;;;;;;11.18;2.40;;;11.50;99.90;;;;;;5094517;28;20028;-70
2022/05/29 06:17:42;;;;;;;13.10;2.83;;;11.40;99.90;;;;;;5081787;28;20043;-70
2022/05/29 06:20:09;;;;;;;12.18;2.20;;;11.40;99.90;;;;;;5095495;28;20520;-70
2022/05/29 06:22:39;;;;;;;13.07;2.50;;;11.40;99.90;;;;;;5078933;28;20414;-70
2022/05/29 06:25:07;;;;;;;11.77;1.90;;;11.50;99.90;;;;;;5108657;27;20130;-70
2022/05/29 06:27:37;;;;;;;14.00;1.88;;;11.50;99.90;;;;;;5074649;28;20035;-70
2022/05/29 06:30:04;;;;;;;12.75;2.03;;;11.50;99.90;;;;;;5091670;28;20505;-70
2022/05/29 06:32:30;;;;;;;10.93;1.65;;;11.60;99.90;;;;;;5097129;28;20063;-70
2022/05/29 06:34:56;;;;;;;12.00;1.35;;;11.50;99.90;;;;;;5075343;28;20520;-70
2022/05/29 06:37:21;;;;;;;11.70;2.20;;;11.30;99.90;;;;;;5097404;28;20039;-70
2022/05/29 06:39:47;;;;;;;8.55;1.80;;;11.30;99.90;;;;;;5096152;28;20039;-70
2022/05/29 06:42:13;;;;;;;10.57;1.80;;;11.20;99.90;;;;;;5089337;28;20044;-70
2022/05/29 06:44:41;;;;;;;8.18;1.65;;;11.20;99.90;;;;;;5094978;28;20043;-70
2022/05/29 06:47:10;;;;;;;8.82;2.00;;;11.20;99.90;;;;;;5095909;28;20032;-70
2022/05/29 06:49:36;;;;;;;11.13;1.30;;;11.20;99.90;;;;;;5096904;28;20044;-70
2022/05/29 06:52:08;;;;;;;13.13;2.00;;;11.10;99.90;;;;;;5077416;28;20051;-70
2022/05/29 06:54:35;;;;;;;10.10;1.58;;;11.20;99.90;;;;;;5099166;28;20395;-70
2022/05/29 06:57:00;;;;;;;12.25;2.03;;;11.30;99.90;;;;;;5059837;28;20062;-70
2022/05/29 06:59:26;;;;;;;10.48;2.35;;;11.30;99.90;;;;;;5075450;28;20207;-70
2022/05/29 07:07:22;;;;;;;13.55;2.08;;;11.50;99.90;;;;;;5107203;27;20043;-70
2022/05/29 07:09:49;;;;;;;8.32;2.35;;;11.40;99.90;;;;;;5097236;28;20131;-70
2022/05/29 07:12:19;;;;;;;11.57;2.05;;;11.40;99.90;;;;;;5080928;28;20044;-69
2022/05/29 07:14:52;;;;;;;12.02;2.03;;;11.50;99.90;;;;;;5079731;28;20036;-70
2022/05/29 07:17:18;;;;;;;11.88;1.95;;;11.50;99.90;;;;;;5093631;28;20044;-70
2022/05/29 07:19:44;;;;;;;10.35;2.00;;;11.60;99.90;;;;;;5093476;28;20040;-70
2022/05/29 07:22:11;;;;;;;12.85;2.60;;;11.70;99.90;;;;;;5076831;28;20040;-70
2022/05/29 07:24:38;;;;;;;15.43;3.10;;;11.70;99.90;;;;;;5074195;28;20036;-70
2022/05/29 07:27:05;;;;;;;10.60;2.55;;;11.70;99.90;;;;;;5096226;28;20040;-70
2022/05/29 07:29:31;;;;;;;13.85;1.85;;;11.80;99.90;;;;;;5092205;28;20031;-70
2022/05/29 07:31:57;;;;;;;15.38;1.90;;;11.80;99.90;;;;;;5081414;28;20551;-70
2022/05/29 07:34:24;;;;;;;12.05;1.95;;;11.80;99.90;;;;;;5096984;28;20652;-70
2022/05/29 07:36:51;;;;;;;10.13;3.15;;;11.90;99.90;;;;;;5078271;28;20744;-70
2022/05/29 07:39:18;;;;;;;10.43;1.65;;;11.90;99.90;;;;;;5091760;28;20073;-70
2022/05/29 07:44:28;;;;;;;12.70;2.90;;;12.10;99.90;;;;;;5095320;28;20459;-70
2022/05/29 07:46:55;;;;;;;17.23;2.47;;;12.20;99.90;;;;;;5068725;28;20123;-70
2022/05/29 07:49:21;;;;;;;12.25;1.80;;;12.30;99.90;;;;;;5092794;28;20083;-70
2022/05/29 07:51:47;;;;;;;8.60;1.48;;;12.30;99.90;;;;;;5098821;28;20094;-70
2022/05/29 07:54:13;;;;;;;9.85;1.88;;;12.40;99.90;;;;;;5076116;28;20046;-69
2022/05/29 07:56:39;;;;;;;7.57;1.50;;;12.50;99.90;;;;;;5075366;28;20043;-70
2022/05/29 07:59:05;;;;;;;10.70;1.33;;;12.60;99.90;;;;;;5060764;28;20559;-70
2022/05/29 08:01:31;;;;;;;8.40;1.52;;;12.60;99.90;;;;;;5074226;28;20052;-70
2022/05/29 08:03:57;;;;;;;11.43;1.75;;;12.60;99.90;;;;;;5093660;28;20032;-70
2022/05/29 08:06:23;;;;;;;11.18;1.70;;;12.60;99.90;;;;;;5078043;28;20042;-70
2022/05/29 08:08:48;;;;;;;8.48;1.85;;;12.60;99.90;;;;;;5073815;28;20889;-70
2022/05/29 08:11:17;;;;;;;9.30;1.17;;;12.60;99.90;;;;;;5073762;28;20500;-70
2022/05/29 08:13:44;;;;;;;8.85;1.60;;;12.60;99.90;;;;;;5095744;28;20032;-69
2022/05/29 08:16:11;;;;;;;7.10;0.98;;;12.50;99.90;;;;;;5079625;28;20040;-70
2022/05/29 08:18:37;;;;;;;8.93;1.13;;;12.50;99.90;;;;;;5080748;28;20028;-70
2022/05/29 08:21:03;;;;;;;8.90;1.08;;;12.50;99.90;;;;;;5079901;28;20044;-70
2022/05/29 08:23:29;;;;;;;6.43;1.00;;;12.40;99.90;;;;;;5091275;28;20036;-70
2022/05/29 08:31:24;;;;;;;9.38;1.10;;;12.30;99.90;;;;;;5075828;28;20047;-70
2022/05/29 08:33:50;;;;;;;7.60;1.33;;;12.30;99.90;;;;;;5075463;28;20043;-70
2022/05/29 08:36:22;;;;;;;9.73;1.05;;;12.30;99.90;;;;;;5080015;28;20040;-70
2022/05/29 08:38:51;;;;;;;5.10;0.60;;;12.40;99.90;;;;;;5098764;28;20027;-69
2022/05/29 08:41:45;;;;;;;4.97;0.60;;;12.50;99.90;;;;;;5073195;28;20072;-69
2022/05/29 08:44:16;;;;;;;7.13;1.35;;;12.60;99.90;;;;;;5079956;28;20142;-69
2022/05/29 08:46:49;;;;;;;4.05;0.60;;;12.80;99.90;;;;;;5097280;28;20039;-69
2022/05/29 08:49:17;;;;;;;5.88;0.77;;;12.90;99.90;;;;;;5093780;28;20036;-69
2022/05/29 08:55:21;;;;;;;8.77;0.93;;;12.90;99.90;;;;;;5107264;28;20052;-69
2022/05/29 08:57:47;;;;;;;4.53;0.60;;;12.90;99.90;;;;;;5096043;28;20046;-69
2022/05/29 09:00:42;;;;;;;4.97;0.70;;;12.90;99.90;;;;;;5106797;28;20468;-69
2022/05/29 09:03:50;;;;;;;8.68;1.10;;;12.80;99.90;;;;;;5094462;28;20036;-69
2022/05/29 09:06:24;;;;;;;11.48;1.73;;;12.80;99.90;;;;;;5082266;28;20497;-69
2022/05/29 09:08:59;;;;;;;9.32;1.05;;;12.80;99.90;;;;;;5104706;28;20493;-69
2022/05/29 09:11:29;;;;;;;6.40;0.98;;;12.80;99.90;;;;;;5072245;28;20147;-69
2022/05/29 09:14:02;;;;;;;5.57;0.55;;;12.80;99.90;;;;;;5076115;28;20044;-69
2022/05/29 09:16:38;;;;;;;4.18;0.90;;;12.80;99.90;;;;;;5080336;28;20117;-69
2022/05/29 09:19:30;;;;;;;5.00;0.90;;;12.90;99.90;;;;;;5075750;28;20044;-69
2022/05/29 09:22:01;;;;;;;3.90;1.15;;;12.90;99.90;;;;;;5091666;28;20043;-69
2022/05/29 09:24:52;;;;;;;7.65;1.42;;;13.00;99.90;;;;;;5078815;28;20074;-69
2022/05/29 09:27:19;;;;;;;4.40;0.57;;;13.10;99.90;;;;;;5104990;27;20506;-69
2022/05/29 09:29:45;;;;;;;7.28;0.85;;;13.20;99.90;;;;;;5072333;28;20044;-69
2022/05/29 09:32:20;;;;;;;6.72;0.88;;;13.20;99.90;;;;;;5093089;28;20401;-69
2022/05/29 09:34:59;;;;;;;5.30;1.05;;;13.40;99.90;;;;;;5097686;28;20486;-65
2022/05/29 09:38:00;;;;;;;3.78;0.73;;;13.40;99.90;;;;;;5081459;28;20040;-71
2022/05/29 09:40:37;;;;;;;4.45;0.93;;;13.60;99.90;;;;;;5072479;28;20044;-71
2022/05/29 09:43:14;;;;;;;5.32;0.85;;;13.60;99.90;;;;;;5081239;28;20048;-71
2022/05/29 09:45:39;;;;;;;6.35;0.80;;;13.70;99.90;;;;;;5097924;28;20118;-71
2022/05/29 09:51:15;;;;;;;3.97;0.80;;;13.80;99.90;;;;;;5096689;28;20051;-71
2022/05/29 09:53:53;;;;;;;5.40;1.40;;;13.70;99.90;;;;;;5076426;28;20053;-71
2022/05/29 09:56:29;;;;;;;7.25;0.90;;;13.60;99.90;;;;;;5067197;28;20086;-71
2022/05/29 09:59:03;;;;;;;3.90;0.47;;;13.50;99.90;;;;;;5089102;28;20040;-71
2022/05/29 10:01:34;;;;;;;3.63;0.60;;;13.30;99.90;;;;;;5077783;28;20043;-71
2022/05/29 10:04:03;;;;;;;5.65;0.95;;;13.20;99.90;;;;;;5075482;28;20525;-71
2022/05/29 10:06:32;;;;;;;5.47;0.82;;;13.10;99.90;;;;;;5078592;28;20662;-71
2022/05/29 10:09:08;;;;;;;6.93;0.90;;;13.10;99.90;;;;;;5071389;28;21131;-71
2022/05/29 10:11:34;;;;;;;6.50;1.15;;;13.10;99.90;;;;;;5059111;28;20071;-71
2022/05/29 10:14:21;;;;;;;5.18;0.77;;;13.00;99.90;;;;;;5093916;28;20820;-71
2022/05/29 10:16:50;;;;;;;7.20;0.90;;;13.10;99.90;;;;;;5095881;28;20039;-71
2022/05/29 10:19:33;;;;;;;6.25;1.17;;;13.20;99.90;;;;;;5097425;28;20066;-71
2022/05/29 10:22:00;;;;;;;10.20;1.67;;;13.40;99.90;;;;;;5110862;27;20072;-71
2022/05/29 10:24:28;;;;;;;8.93;1.63;;;13.30;99.90;;;;;;5068378;28;20383;-71
2022/05/29 10:26:57;;;;;;;11.75;1.83;;;13.20;99.90;;;;;;5085653;28;20051;-71
2022/05/29 10:29:30;;;;;;;4.30;0.80;;;13.10;99.90;;;;;;5090225;28;20035;-71
2022/05/29 10:31:58;;;;;;;12.85;1.05;;;13.00;99.90;;;;;;5092072;28;20125;-71
2022/05/29 10:34:28;;;;;;;5.57;0.70;;;13.00;99.90;;;;;;5080193;28;20551;-70
2022/05/29 10:36:54;;;;;;;4.40;0.60;;;13.00;99.90;;;;;;5088792;28;20032;-70
2022/05/29 10:39:24;;;;;;;5.05;1.02;;;13.00;99.90;;;;;;5093992;28;20076;-70
2022/05/29 10:41:51;;;;;;;2.30;0.40;;;13.10;99.90;;;;;;5087961;28;20044;-71
2022/05/29 10:44:42;;;;;;;4.03;0.40;;;13.20;99.90;;;;;;5074605;28;20943;-71
2022/05/29 10:47:16;;;;;;;8.82;0.60;;;13.30;99.90;;;;;;5075275;28;20046;-71
2022/05/29 10:50:01;;;;;;;3.42;0.30;;;13.40;99.90;;;;;;5078268;28;20035;-71
2022/05/29 10:52:42;;;;;;;3.78;0.40;;;13.60;99.90;;;;;;5074726;28;20074;-71
2022/05/29 10:55:57;;;;;;;3.70;0.40;;;13.80;99.90;;;;;;5072662;28;20044;-70
2022/05/29 10:58:42;;;;;;;5.68;0.60;;;14.00;99.90;;;;;;5079357;28;20093;-71
2022/05/29 11:04:46;;;;;;;7.05;0.90;;;14.10;99.90;;;;;;5067764;28;20088;-71
2022/05/29 11:07:54;;;;;;;10.00;1.55;;;13.90;99.90;;;;;;5107486;27;20089;-71
2022/05/29 11:10:44;;;;;;;12.10;1.48;;;13.70;99.90;;;;;;5070606;28;20114;-71
2022/05/29 11:13:16;;;;;;;9.15;1.02;;;13.60;99.90;;;;;;5082548;28;20127;-71
2022/05/29 11:16:11;;;;;;;9.85;1.33;;;13.60;99.90;;;;;;5082917;28;20408;-71
2022/05/29 11:18:40;;;;;;;8.07;1.20;;;13.50;99.90;;;;;;5062296;28;20223;-71
2022/05/29 11:21:15;;;;;;;6.05;0.82;;;13.50;99.90;;;;;;5091681;28;20072;-71
2022/05/29 11:24:10;;;;;;;6.68;0.80;;;13.50;99.90;;;;;;5086125;28;20443;-70
2022/05/29 11:26:46;;;;;;;9.05;1.60;;;13.50;99.90;;;;;;5078287;28;20040;-71
2022/05/29 11:29:39;;;;;;;9.32;0.90;;;13.60;99.90;;;;;;5108473;27;20101;-71
2022/05/29 11:32:17;;;;;;;6.05;0.90;;;13.70;99.90;;;;;;5069498;28;20078;-71
2022/05/29 11:35:10;;;;;;;6.03;0.60;;;13.90;99.90;;;;;;5071728;28;20945;-71
2022/05/29 11:37:50;;;;;;;5.05;0.77;;;14.10;99.90;;;;;;5088193;28;20044;-71
2022/05/29 11:40:29;;;;;;;9.52;0.98;;;14.20;99.90;;;;;;5065322;28;20044;-71
2022/05/29 11:43:16;;;;;;;7.22;1.40;;;14.30;99.90;;;;;;5082463;28;20862;-71
2022/05/29 11:51:52;;;;;;;6.82;1.13;;;14.00;99.90;;;;;;5087427;28;20048;-71
2022/05/29 11:54:33;;;;;;;7.25;1.02;;;13.80;99.90;;;;;;5070294;28;20055;-71
2022/05/29 11:57:19;;;;;;;6.57;1.05;;;13.60;99.90;;;;;;5088962;28;20644;-71
2022/05/29 11:59:54;;;;;;;6.05;0.93;;;13.40;99.90;;;;;;5048417;28;20407;-69
2022/05/29 12:02:46;;;;;;;5.60;0.80;;;13.30;99.90;;;;;;5083765;28;20039;-66
2022/05/29 12:05:21;;;;;;;6.25;0.80;;;13.20;99.90;;;;;;5089306;28;20028;-66
2022/05/29 12:08:24;;;;;;;6.22;1.42;;;13.20;99.90;;;;;;5081040;28;20497;-66
2022/05/29 12:10:56;;;;;;;5.68;1.13;;;13.20;99.90;;;;;;5076572;28;20044;-66
2022/05/29 12:13:27;;;;;;;4.93;0.88;;;13.30;99.90;;;;;;5071213;28;20046;-66
2022/05/29 12:16:02;;;;;;;6.22;0.90;;;13.30;99.90;;;;;;5089125;28;20508;-66
2022/05/29 12:18:43;;;;;;;8.20;0.90;;;13.40;99.90;;;;;;5064238;28;20531;-66
2022/05/29 12:21:14;;;;;;;6.28;0.93;;;13.60;99.90;;;;;;5063595;28;20048;-66
2022/05/29 12:23:48;;;;;;;8.85;1.60;;;13.70;99.90;;;;;;5105665;27;20039;-66
2022/05/29 12:26:26;;;;;;;7.05;0.77;;;13.90;99.90;;;;;;5070012;28;20055;-66
2022/05/29 12:29:02;;;;;;;10.05;0.90;;;14.00;99.90;;;;;;5086889;28;20055;-66
2022/05/29 12:31:42;;;;;;;;;;;14.10;99.90;;;;;;5091172;28;20032;-66
2022/05/29 12:34:28;;;;;;;6.70;1.50;;;14.20;99.90;;;;;;5068174;28;19922;-66
2022/05/29 12:37:04;;;;;;;5.32;0.90;;;14.30;99.90;;;;;;5070898;28;20044;-66
2022/05/29 12:39:48;;;;;;;;;;;14.30;99.90;;;;;;5109039;28;20047;-66
2022/05/29 12:42:44;;;;;;;6.78;1.20;;;14.20;99.90;;;;;;5105558;28;19920;-66
2022/05/29 12:45:34;;;;;;;9.20;1.25;;;14.20;99.90;;;;;;5090829;28;20393;-66
2022/05/29 12:48:05;;;;;;;7.47;1.27;;;14.20;99.90;;;;;;5091004;28;20052;-66
2022/05/29 12:50:52;;;;;;;9.68;1.67;;;14.10;99.90;;;;;;5068647;28;20040;-66
2022/05/29 12:53:23;;;;;;;11.45;1.50;;;14.00;99.90;;;;;;5075591;28;20069;-66
2022/05/29 12:56:34;;;;;;;8.80;1.30;;;13.90;99.90;;;;;;5075604;28;20045;-66
2022/05/29 12:59:25;;;;;;;9.02;1.10;;;13.80;99.90;;;;;;5093034;28;20539;-66
2022/05/29 13:02:11;;;;;;;11.27;1.20;;;13.80;99.90;;;;;;5097643;28;20464;-66
2022/05/29 13:05:01;;;;;;;8.05;1.00;;;13.80;99.90;;;;;;5094624;28;20039;-66
2022/05/29 13:07:36;;;;;;;8.20;1.33;;;13.70;99.90;;;;;;5081299;28;20039;-65
2022/05/29 13:10:12;;;;;;;10.15;1.17;;;13.80;99.90;;;;;;5090545;28;20044;-66
2022/05/29 13:13:03;;;;;;;8.23;1.30;;;13.80;99.90;;;;;;5093885;28;20089;-66
2022/05/29 13:15:34;;;;;;;8.00;1.27;;;13.90;99.90;;;;;;5072230;28;20050;-66
2022/05/29 13:18:04;;;;;;;6.68;0.90;;;13.90;99.90;;;;;;5063196;28;20097;-66
2022/05/29 13:20:50;;;;;;;13.23;1.70;;;14.00;99.90;;;;;;5073545;28;20040;-66
2022/05/29 13:23:34;;;;;;;10.60;1.08;;;14.00;99.90;;;;;;5095268;28;20052;-66
2022/05/29 13:25:59;;;;;;;5.03;0.95;;;14.00;99.90;;;;;;5068008;28;20973;-66
2022/05/29 13:29:12;;;;;;;5.10;1.75;;;14.10;99.90;;;;;;5093979;28;20034;-66
2022/05/29 13:32:12;;;;;;;6.03;0.75;;;14.10;99.90;;;;;;5091115;28;20096;-66
2022/05/29 13:34:38;;;;;;;6.40;1.23;;;14.20;99.90;;;;;;5065070;28;20441;-65
2022/05/29 13:37:26;;;;;;;8.75;1.05;;;14.20;99.90;;;;;;5079943;28;20089;-66
2022/05/29 13:40:03;;;;;;;8.77;0.95;;;14.00;99.90;;;;;;5065334;28;20059;-66
2022/05/29 13:42:33;;;;;;;8.98;1.48;;;13.90;99.90;;;;;;5078755;28;20093;-66
2022/05/29 13:45:23;;;;;;;3.83;0.73;;;13.80;99.90;;;;;;5066137;28;20044;-66
2022/05/29 13:48:12;;;;;;;5.10;1.50;;;13.70;99.90;;;;;;5071872;28;20137;-66
2022/05/29 13:50:41;;;;;;;6.57;0.98;;;13.70;99.90;;;;;;5092136;27;20752;-66
2022/05/29 13:53:13;;;;;;;6.32;1.17;;;13.70;99.90;;;;;;5048877;28;20036;-64
2022/05/29 13:55:42;;;;;;;17.33;1.20;;;13.70;99.90;;;;;;5075972;28;20036;-65